Time;durP1;ratioP1;P1;durP2;ratioP2;P2;SDS_P1;SDS_P2;PMS_P1;PMS_P2;Temp;Humidity;BMP_temperature;BMP_pressure;BME280_temperature;BME280_humidity;BME280_pressure;Samples;Min_cycle;Max_cycle;Signal;HPM_P1;HPM_P2
2023/04/03 00:02:24;;;;;;;;;;;4.40;99.90;;;;;;5089491;28;20375;-76
2023/04/03 00:04:49;;;;;;;;;;;4.30;99.90;;;;;;5089027;28;19966;-76
2023/04/03 00:07:15;;;;;;;;;;;4.30;99.90;;;;;;5089092;28;20444;-76
2023/04/03 00:09:41;;;;;;;;;;;4.20;99.90;;;;;;5089410;28;19964;-76
2023/04/03 00:12:06;;;;;;;;;;;4.20;99.90;;;;;;5122296;27;19924;-76
2023/04/03 00:14:32;;;;;;;;;;;4.20;99.90;;;;;;5088954;28;19932;-76
2023/04/03 00:16:57;;;;;;;;;;;4.20;99.90;;;;;;5088736;28;19959;-76
2023/04/03 00:19:23;;;;;;;;;;;4.20;99.90;;;;;;5088789;28;19920;-76
2023/04/03 00:21:48;;;;;;;;;;;4.10;99.90;;;;;;5090274;28;19920;-76
2023/04/03 00:24:14;;;;;;;;;;;4.10;99.90;;;;;;5088558;28;19927;-76
2023/04/03 00:26:39;;;;;;;;;;;4.10;99.90;;;;;;5089547;28;19963;-76
2023/04/03 00:29:05;;;;;;;;;;;4.10;99.90;;;;;;5088760;28;19920;-76
2023/04/03 00:31:30;;;;;;;;;;;4.10;99.90;;;;;;5088625;28;19935;-76
2023/04/03 00:33:56;;;;;;;;;;;4.10;99.90;;;;;;5088521;28;19935;-76
2023/04/03 00:36:21;;;;;;;;;;;4.00;99.90;;;;;;5088585;28;19924;-76
2023/04/03 00:38:47;;;;;;;;;;;4.00;99.90;;;;;;5088373;28;20318;-76
2023/04/03 00:41:12;;;;;;;;;;;4.00;99.90;;;;;;5088193;28;19923;-76
2023/04/03 00:43:38;;;;;;;;;;;4.00;99.90;;;;;;5089782;28;19920;-76
2023/04/03 00:46:04;;;;;;;;;;;4.00;99.90;;;;;;5086621;28;19924;-76
2023/04/03 00:48:35;;;;;;;;;;;4.00;99.90;;;;;;5081719;28;19927;-76
2023/04/03 00:51:02;;;;;;;;;;;4.00;99.90;;;;;;5088104;28;19920;-76
2023/04/03 00:53:30;;;;;;;;;;;4.00;99.90;;;;;;5088351;28;19927;-76
2023/04/03 00:55:56;;;;;;;;;;;3.90;99.90;;;;;;5071757;28;19920;-76
2023/04/03 00:58:25;;;;;;;;;;;3.90;99.90;;;;;;5087881;28;19934;-76
2023/04/03 01:00:56;;;;;;;;;;;3.90;99.90;;;;;;5088086;28;19966;-76
2023/04/03 01:03:21;;;;;;;;;;;4.00;99.90;;;;;;5086572;28;20334;-76
2023/04/03 01:05:47;;;;;;;;;;;4.00;99.90;;;;;;5089811;28;20001;-76
2023/04/03 01:08:12;;;;;;;;;;;4.00;99.90;;;;;;5087771;28;19955;-76
2023/04/03 01:10:38;;;;;;;;;;;4.00;99.90;;;;;;5089541;28;19924;-77
2023/04/03 01:13:17;;;;;;;;;;;3.90;99.90;;;;;;5088392;28;19920;-76
2023/04/03 01:15:42;;;;;;;;;;;3.90;99.90;;;;;;5088059;28;19946;-76
2023/04/03 01:18:09;;;;;;;;;;;3.90;99.90;;;;;;5088306;28;20262;-76
2023/04/03 01:20:54;;;;;;;;;;;3.90;99.90;;;;;;5087971;28;19923;-76
2023/04/03 01:23:31;;;;;;;;;;;3.90;99.90;;;;;;5088179;28;19920;-76
2023/04/03 01:25:57;;;;;;;;;;;3.90;99.90;;;;;;5071374;28;19920;-76
2023/04/03 01:28:27;;;;;;;;;;;3.80;99.90;;;;;;5087855;28;19924;-76
2023/04/03 01:31:08;;;;;;;;;;;3.80;99.90;;;;;;5111525;27;19920;-76
2023/04/03 01:33:33;;;;;;;;;;;3.80;99.90;;;;;;5088424;28;20020;-75
2023/04/03 01:35:59;;;;;;;;;;;3.70;99.90;;;;;;5122187;28;19962;-76
2023/04/03 01:38:25;;;;;;;;;;;3.70;99.90;;;;;;5088050;28;19931;-76
2023/04/03 01:40:51;;;;;;;;;;;3.70;99.90;;;;;;5087420;28;20018;-76
2023/04/03 01:43:16;;;;;;;;;;;3.70;99.90;;;;;;5088072;28;20413;-76
2023/04/03 01:45:42;;;;;;;;;;;3.70;99.90;;;;;;5088236;28;19928;-76
2023/04/03 01:48:07;;;;;;;;;;;3.60;99.90;;;;;;5089041;28;19967;-76
2023/04/03 01:50:33;;;;;;;;;;;3.60;99.90;;;;;;5088231;28;19920;-76
2023/04/03 01:52:59;;;;;;;;;;;3.60;99.90;;;;;;5089155;28;19919;-76
2023/04/03 01:55:24;;;;;;;;;;;3.60;99.90;;;;;;5071268;28;19924;-76
2023/04/03 01:57:50;;;;;;;;;;;3.50;99.90;;;;;;5088795;28;19924;-76
2023/04/03 02:00:16;;;;;;;;;;;3.50;99.90;;;;;;5089005;28;19920;-76
2023/04/03 02:02:41;;;;;;;;;;;3.40;99.90;;;;;;5087717;28;19927;-76
2023/04/03 02:05:07;;;;;;;;;;;3.40;99.90;;;;;;5088121;28;20320;-76
2023/04/03 02:07:33;;;;;;;;;;;3.40;99.90;;;;;;5089772;28;19924;-76
2023/04/03 02:09:58;;;;;;;;;;;3.40;99.90;;;;;;5092566;28;20314;-76
2023/04/03 02:12:24;;;;;;;;;;;3.40;99.90;;;;;;5092294;28;20440;-76
2023/04/03 02:14:49;;;;;;;;;;;3.40;99.90;;;;;;5091541;28;20556;-76
2023/04/03 02:17:15;;;;;;;;;;;3.30;99.90;;;;;;5090757;28;20335;-76
2023/04/03 02:19:40;;;;;;;;;;;3.30;99.90;;;;;;5124897;27;19975;-76
2023/04/03 02:22:06;;;;;;;;;;;3.30;99.90;;;;;;5091089;28;19924;-76
2023/04/03 02:24:32;;;;;;;;;;;3.30;99.90;;;;;;5091053;28;20319;-76
2023/04/03 02:26:57;;;;;;;;;;;3.20;99.90;;;;;;5092696;28;19920;-76
2023/04/03 02:29:23;;;;;;;;;;;3.20;99.90;;;;;;5090748;28;19927;-76
2023/04/03 02:31:49;;;;;;;;;;;3.20;99.90;;;;;;5073920;28;19926;-76
2023/04/03 02:34:14;;;;;;;;;;;3.20;99.90;;;;;;5090610;28;19942;-76
2023/04/03 02:36:40;;;;;;;;;;;3.10;99.90;;;;;;5091049;28;19974;-76
2023/04/03 02:39:05;;;;;;;;;;;3.10;99.90;;;;;;5074017;28;20006;-76
2023/04/03 02:41:35;;;;;;;;;;;3.10;99.90;;;;;;5091719;28;20009;-76
2023/04/03 02:44:01;;;;;;;;;;;3.00;99.90;;;;;;5091968;28;19927;-76
2023/04/03 02:46:26;;;;;;;;;;;3.00;99.90;;;;;;5091563;28;19924;-76
2023/04/03 02:48:52;;;;;;;;;;;3.00;99.90;;;;;;5090447;28;19924;-76
2023/04/03 02:51:17;;;;;;;;;;;3.00;99.90;;;;;;5124517;27;19924;-76
2023/04/03 02:53:43;;;;;;;;;;;2.90;99.90;;;;;;5090522;28;19920;-76
2023/04/03 02:56:08;;;;;;;;;;;2.90;99.90;;;;;;5091424;28;19927;-76
2023/04/03 02:58:34;;;;;;;;;;;2.90;99.90;;;;;;5091360;28;19924;-76
2023/04/03 03:00:59;;;;;;;;;;;2.80;99.90;;;;;;5073360;28;20005;-76
2023/04/03 03:03:25;;;;;;;;;;;2.80;99.90;;;;;;5073431;28;19963;-76
2023/04/03 03:06:00;;;;;;;;;;;2.70;99.90;;;;;;5090161;28;20728;-76
2023/04/03 03:08:26;;;;;;;;;;;2.70;99.90;;;;;;5090612;28;19919;-76
2023/04/03 03:10:51;;;;;;;;;;;2.60;99.90;;;;;;5091618;28;19944;-76
2023/04/03 03:13:17;;;;;;;;;;;2.60;99.90;;;;;;5073274;28;19919;-76
2023/04/03 03:15:42;;;;;;;;;;;2.60;99.90;;;;;;5090660;28;19920;-76
2023/04/03 03:18:08;;;;;;;;;;;2.60;99.90;;;;;;5090084;28;20483;-76
2023/04/03 03:20:33;;;;;;;;;;;2.60;99.90;;;;;;5089765;28;19924;-76
2023/04/03 03:22:59;;;;;;;;;;;2.60;99.90;;;;;;5089903;28;19927;-76
2023/04/03 03:25:24;;;;;;;;;;;2.60;99.90;;;;;;5089921;28;19920;-76
2023/04/03 03:27:50;;;;;;;;;;;2.50;99.90;;;;;;5089956;28;20286;-76
2023/04/03 03:30:15;;;;;;;;;;;2.50;99.90;;;;;;5124026;27;19927;-76
2023/04/03 03:32:41;;;;;;;;;;;2.50;99.90;;;;;;5089811;28;19920;-76
2023/04/03 03:35:06;;;;;;;;;;;2.50;99.90;;;;;;5089805;28;19920;-76
2023/04/03 03:37:32;;;;;;;;;;;2.50;99.90;;;;;;5089492;28;19966;-76
2023/04/03 03:39:57;;;;;;;;;;;2.50;99.90;;;;;;5071973;28;19920;-76
2023/04/03 03:42:23;;;;;;;;;;;2.50;99.90;;;;;;5089845;28;20309;-76
2023/04/03 03:44:49;;;;;;;;;;;2.50;99.90;;;;;;5090890;28;19928;-76
2023/04/03 03:47:14;;;;;;;;;;;2.50;99.90;;;;;;5090891;28;19920;-76
2023/04/03 03:49:40;;;;;;;;;;;2.40;99.90;;;;;;5089022;28;20453;-76
2023/04/03 03:52:06;;;;;;;;;;;2.40;99.90;;;;;;5123994;27;19927;-76
2023/04/03 03:54:31;;;;;;;;;;;2.40;99.90;;;;;;5089193;28;19981;-76
2023/04/03 03:56:57;;;;;;;;;;;2.30;99.90;;;;;;5090027;28;19927;-76
2023/04/03 03:59:22;;;;;;;;;;;2.30;99.90;;;;;;5088940;28;21414;-76
2023/04/03 04:01:48;;;;;;;;;;;2.30;99.90;;;;;;5088864;28;20008;-76
2023/04/03 04:04:13;;;;;;;;;;;2.30;99.90;;;;;;5090478;28;19965;-76
2023/04/03 04:06:39;;;;;;;;;;;2.30;99.90;;;;;;5089715;28;19920;-76
2023/04/03 04:09:05;;;;;;;;;;;2.20;99.90;;;;;;5088926;28;19920;-76
2023/04/03 04:11:32;;;;;;;;;;;2.20;99.90;;;;;;5089023;28;19920;-76
2023/04/03 04:13:57;;;;;;;;;;;2.20;99.90;;;;;;5089338;28;19924;-76
2023/04/03 04:16:23;;;;;;;;;;;2.30;99.90;;;;;;5088795;28;19920;-76
2023/04/03 04:18:48;;;;;;;;;;;2.20;99.90;;;;;;5088639;28;19938;-76
2023/04/03 04:21:14;;;;;;;;;;;2.20;99.90;;;;;;5088451;28;19920;-76
2023/04/03 04:23:39;;;;;;;;;;;2.20;99.90;;;;;;5089775;28;19924;-76
2023/04/03 04:26:05;;;;;;;;;;;2.20;99.90;;;;;;5088580;28;19919;-76
2023/04/03 04:28:30;;;;;;;;;;;2.20;99.90;;;;;;5088383;28;20014;-76
2023/04/03 04:30:56;;;;;;;;;;;2.20;99.90;;;;;;5088076;28;19946;-76
2023/04/03 04:33:21;;;;;;;;;;;2.20;99.90;;;;;;5088066;28;19924;-76
2023/04/03 04:35:47;;;;;;;;;;;2.20;99.90;;;;;;5088817;28;19920;-76
2023/04/03 04:38:13;;;;;;;;;;;2.20;99.90;;;;;;5088457;28;20018;-76
2023/04/03 04:40:38;;;;;;;;;;;2.10;99.90;;;;;;5087749;28;20018;-76
2023/04/03 04:43:04;;;;;;;;;;;2.10;99.90;;;;;;5088493;28;19926;-76
2023/04/03 04:45:30;;;;;;;;;;;2.10;99.90;;;;;;5088568;28;19920;-76
2023/04/03 04:47:56;;;;;;;;;;;2.10;99.90;;;;;;5088607;28;20293;-76
2023/04/03 04:50:21;;;;;;;;;;;2.10;99.90;;;;;;5088642;28;20010;-76
2023/04/03 04:52:47;;;;;;;;;;;2.10;99.90;;;;;;5089283;28;19924;-76
2023/04/03 04:55:12;;;;;;;;;;;2.10;99.90;;;;;;5086922;28;19920;-76
2023/04/03 04:57:38;;;;;;;;;;;2.10;99.90;;;;;;5089594;28;19920;-76
2023/04/03 05:00:04;;;;;;;;;;;2.10;99.90;;;;;;5088441;28;19950;-76
2023/04/03 05:02:30;;;;;;;;;;;2.10;99.90;;;;;;5087987;28;20006;-76
2023/04/03 05:04:56;;;;;;;;;;;2.10;99.90;;;;;;5088646;28;19999;-76
2023/04/03 05:07:22;;;;;;;;;;;2.10;99.90;;;;;;5088413;28;19920;-76
2023/04/03 05:09:47;;;;;;;;;;;2.10;99.90;;;;;;5102664;28;19923;-76
2023/04/03 05:12:13;;;;;;;;;;;2.10;99.90;;;;;;5088948;28;19966;-76
2023/04/03 05:14:38;;;;;;;;;;;2.10;99.90;;;;;;5088330;28;19966;-76
2023/04/03 05:17:04;;;;;;;;;;;2.10;99.90;;;;;;5089727;28;20026;-76
2023/04/03 05:19:29;;;;;;;;;;;2.10;99.90;;;;;;5088054;28;20027;-76
2023/04/03 05:21:55;;;;;;;;;;;2.10;99.90;;;;;;5088241;28;19951;-76
2023/04/03 05:24:20;;;;;;;;;;;2.10;99.90;;;;;;5087761;28;19920;-76
2023/04/03 05:26:46;;;;;;;;;;;2.10;99.90;;;;;;5087568;28;19924;-76
2023/04/03 05:29:11;;;;;;;;;;;2.10;99.90;;;;;;5089471;28;20297;-75
2023/04/03 05:31:37;;;;;;;;;;;2.10;99.90;;;;;;5071468;28;19927;-76
2023/04/03 05:34:02;;;;;;;;;;;2.20;99.90;;;;;;5088222;28;19958;-76
2023/04/03 05:36:28;;;;;;;;;;;2.10;99.90;;;;;;5088442;28;19931;-76
2023/04/03 05:38:56;;;;;;;;;;;2.10;99.90;;;;;;5088282;28;19966;-76
2023/04/03 05:41:21;;;;;;;;;;;2.10;99.90;;;;;;5071350;28;19920;-77
2023/04/03 05:43:47;;;;;;;;;;;2.10;99.90;;;;;;5091806;28;19992;-74
2023/04/03 05:46:13;;;;;;;;;;;2.20;99.90;;;;;;5125986;27;19920;-74
2023/04/03 05:48:39;;;;;;;;;;;2.20;99.90;;;;;;5105652;27;19927;-75
2023/04/03 05:51:06;;;;;;;;;;;2.20;99.90;;;;;;5093700;28;19924;-75
2023/04/03 05:53:32;;;;;;;;;;;2.20;99.90;;;;;;5085658;28;19951;-75
2023/04/03 05:55:58;;;;;;;;;;;2.30;99.90;;;;;;5091427;28;19920;-75
2023/04/03 05:58:24;;;;;;;;;;;2.30;99.90;;;;;;5091785;28;20031;-75
2023/04/03 06:00:49;;;;;;;;;;;2.30;99.90;;;;;;5091507;28;19920;-75
2023/04/03 06:03:15;;;;;;;;;;;2.30;99.90;;;;;;5124916;27;19931;-76
2023/04/03 06:05:41;;;;;;;;;;;2.40;99.90;;;;;;5091794;28;19924;-75
2023/04/03 06:08:07;;;;;;;;;;;2.40;99.90;;;;;;5092933;28;19920;-75
2023/04/03 06:10:32;;;;;;;;;;;2.50;99.90;;;;;;5090957;28;19920;-75
2023/04/03 06:12:58;;;;;;;;;;;2.50;99.90;;;;;;5091206;28;19924;-75
2023/04/03 06:15:23;;;;;;;;;;;2.60;99.90;;;;;;5092237;28;19924;-76
2023/04/03 06:17:49;;;;;;;;;;;2.60;99.90;;;;;;5092315;28;19920;-76
2023/04/03 06:20:14;;;;;;;;;;;2.60;99.90;;;;;;5092252;28;19926;-75
2023/04/03 06:22:41;;;;;;;;;;;2.70;99.90;;;;;;5091241;28;19920;-76
2023/04/03 06:25:07;;;;;;;;;;;2.70;99.90;;;;;;5090932;28;20328;-76
2023/04/03 06:27:33;;;;;;;;;;;2.80;99.90;;;;;;5108235;28;19934;-76
2023/04/03 06:29:58;;;;;;;;;;;2.80;99.90;;;;;;5090788;28;19924;-76
2023/04/03 06:32:24;;;;;;;;;;;2.90;99.90;;;;;;5091115;28;19930;-75
2023/04/03 06:34:49;;;;;;;;;;;2.90;99.90;;;;;;5091280;28;20304;-75
2023/04/03 06:37:16;;;;;;;;;;;2.90;99.90;;;;;;5090658;28;20385;-76
2023/04/03 06:39:42;;;;;;;;;;;3.00;99.90;;;;;;5107107;28;19927;-76
2023/04/03 06:42:07;;;;;;;;;;;3.00;99.90;;;;;;5091115;28;19920;-76
2023/04/03 06:44:34;;;;;;;;;;;3.00;99.90;;;;;;5090533;28;19965;-76
2023/04/03 06:47:00;;;;;;;;;;;3.10;99.90;;;;;;5090686;28;19924;-76
2023/04/03 06:49:26;;;;;;;;;;;3.10;99.90;;;;;;5091620;28;20336;-76
2023/04/03 06:51:51;;;;;;;;;;;3.20;99.90;;;;;;5090415;28;19923;-76
2023/04/03 06:54:18;;;;;;;;;;;3.20;99.90;;;;;;5090209;28;19927;-76
2023/04/03 06:56:43;;;;;;;;;;;3.30;99.90;;;;;;5090578;28;20030;-76
2023/04/03 06:59:10;;;;;;;;;;;3.30;99.90;;;;;;5089516;28;20045;-76
2023/04/03 07:01:35;;;;;;;;;;;3.30;99.90;;;;;;5090770;28;19920;-76
2023/04/03 07:04:01;;;;;;;;;;;3.40;99.90;;;;;;5090437;28;20441;-76
2023/04/03 07:06:27;;;;;;;;;;;3.40;99.90;;;;;;5091362;28;19924;-76
2023/04/03 07:08:52;;;;;;;;;;;3.40;99.90;;;;;;5090271;28;19920;-76
2023/04/03 07:11:18;;;;;;;;;;;3.40;99.90;;;;;;5089624;28;19999;-76
2023/04/03 07:13:43;;;;;;;;;;;3.50;99.90;;;;;;5073126;28;19920;-76
2023/04/03 07:16:09;;;;;;;;;;;3.50;99.90;;;;;;5091592;28;20334;-76
2023/04/03 07:18:35;;;;;;;;;;;3.60;99.90;;;;;;5089885;28;19931;-76
2023/04/03 07:21:01;;;;;;;;;;;3.60;99.90;;;;;;5090165;28;20378;-76
2023/04/03 07:23:27;;;;;;;;;;;3.60;99.90;;;;;;5089779;28;20016;-76
2023/04/03 07:25:52;;;;;;;;;;;3.60;99.90;;;;;;5090100;28;19965;-76
2023/04/03 07:28:19;;;;;;;;;;;3.60;99.90;;;;;;5090022;28;19920;-76
2023/04/03 07:30:58;;;;;;;;;;;3.70;99.90;;;;;;5089290;28;19946;-76
2023/04/03 07:33:24;;;;;;;;;;;3.70;99.90;;;;;;5091116;28;20086;-76
2023/04/03 07:35:50;;;;;;;;;;;3.80;99.90;;;;;;5089812;28;20350;-76
2023/04/03 07:38:16;;;;;;;;;;;3.80;99.90;;;;;;5089985;28;19970;-76
2023/04/03 07:40:45;;;;;;;;;;;3.80;99.90;;;;;;5089522;28;20788;-76
2023/04/03 07:43:11;;;;;;;;;;;3.90;99.90;;;;;;5089120;28;19932;-76
2023/04/03 07:45:36;;;;;;;;;;;3.90;99.90;;;;;;5090688;28;19973;-76
2023/04/03 07:48:02;;;;;;;;;;;4.00;99.90;;;;;;5091052;28;19924;-76
2023/04/03 07:50:28;;;;;;;;;;;4.00;99.90;;;;;;5089515;28;20408;-76
2023/04/03 07:52:56;;;;;;;;;;;4.10;99.90;;;;;;5090369;28;20004;-76
2023/04/03 07:55:21;;;;;;;;;;;4.10;99.90;;;;;;5089444;28;19920;-76
2023/04/03 07:57:47;;;;;;;;;;;4.20;99.90;;;;;;5090110;28;19965;-76
2023/04/03 08:00:14;;;;;;;;;;;4.20;99.90;;;;;;5089125;28;19927;-76
2023/04/03 08:02:39;;;;;;;;;;;4.30;99.90;;;;;;5122836;27;19967;-77
2023/04/03 08:05:05;;;;;;;;;;;4.30;99.90;;;;;;5088887;28;19967;-76
2023/04/03 08:07:31;;;;;;;;;;;4.30;99.90;;;;;;5090024;28;19995;-76
2023/04/03 08:09:56;;;;;;;;;;;4.30;99.90;;;;;;5089537;28;19931;-76
2023/04/03 08:12:22;;;;;;;;;;;4.40;99.90;;;;;;5090325;28;20340;-77
2023/04/03 08:14:48;;;;;;;;;;;4.40;99.90;;;;;;5088834;28;19924;-77
2023/04/03 08:17:13;;;;;;;;;;;4.40;99.90;;;;;;5088810;28;19969;-76
2023/04/03 08:19:39;;;;;;;;;;;4.50;99.90;;;;;;5088710;28;19920;-76
2023/04/03 08:22:06;;;;;;;;;;;4.50;99.90;;;;;;5071503;28;19947;-76
2023/04/03 08:24:32;;;;;;;;;;;4.60;99.90;;;;;;5090136;28;19920;-76
2023/04/03 08:26:57;;;;;;;;;;;4.60;99.90;;;;;;5090011;28;20309;-76
2023/04/03 08:29:23;;;;;;;;;;;4.70;99.90;;;;;;5088791;28;20023;-77
2023/04/03 08:31:50;;;;;;;;;;;4.80;99.90;;;;;;5088699;28;19935;-77
2023/04/03 08:34:15;;;;;;;;;;;4.90;99.90;;;;;;5089792;28;20443;-76
2023/04/03 08:36:41;;;;;;;;;;;4.90;99.90;;;;;;5090131;28;19928;-76
2023/04/03 08:39:07;;;;;;;;;;;4.90;99.90;;;;;;5089667;28;19924;-76
2023/04/03 08:41:39;;;;;;;;;;;5.00;99.90;;;;;;5088714;28;19955;-76
2023/04/03 08:44:17;;;;;;;;;;;5.10;99.90;;;;;;5090048;28;19973;-76
2023/04/03 08:47:04;;;;;;;;;;;5.10;99.90;;;;;;5088392;28;19974;-76
2023/04/03 08:49:32;;;;;;;;;;;5.20;99.90;;;;;;5089095;28;19924;-76
2023/04/03 08:51:59;;;;;;;;;;;5.20;99.90;;;;;;5090021;28;20286;-76
2023/04/03 08:54:27;;;;;;;;;;;5.40;99.90;;;;;;5089335;28;19920;-76
2023/04/03 08:56:53;;;;;;;;;;;5.50;99.90;;;;;;5088268;28;19986;-76
2023/04/03 08:59:24;;;;;;;;;;;5.60;99.90;;;;;;5087836;28;19924;-77
2023/04/03 09:01:51;;;;;;;;;;;5.70;99.90;;;;;;5122778;27;20333;-77
2023/04/03 09:04:17;;;;;;;;;;;5.70;99.90;;;;;;5089765;28;19927;-77
2023/04/03 09:06:46;;;;;;;;;;;5.80;99.90;;;;;;5089384;28;19920;-76
2023/04/03 09:09:30;;;;;;;;;;;5.80;99.90;;;;;;5089504;28;19920;-76
2023/04/03 09:12:08;;;;;;;;;;;5.80;99.90;;;;;;5089382;28;19920;-76
2023/04/03 09:14:46;;;;;;;;;;;5.90;99.90;;;;;;5080410;28;19924;-76
2023/04/03 09:17:17;;;;;;;;;;;6.00;99.90;;;;;;5092372;28;19936;-76
2023/04/03 09:20:08;;;;;;;;;;;6.10;99.90;;;;;;5093986;28;19923;-76
2023/04/03 09:22:37;;;;;;;;;;;6.20;99.90;;;;;;5083207;28;19920;-76
2023/04/03 09:25:12;;;;;;;;;;;6.80;99.90;;;;;;5092068;28;20411;-76
2023/04/03 09:27:38;;;;;;;;;;;7.90;99.90;;;;;;5092054;28;20000;-76
2023/04/03 09:30:04;;;;;;;;;;;9.00;99.90;;;;;;5093406;28;20352;-77
2023/04/03 09:32:34;;;;;;;;;;;9.70;99.90;;;;;;5075397;28;19969;-77
2023/04/03 09:35:04;;;;;;;;;;;10.30;99.90;;;;;;5093584;28;19927;-77
2023/04/03 09:37:38;;;;;;;;;;;10.90;99.10;;;;;;5093641;28;20018;-77
2023/04/03 09:40:04;;;;;;;;;;;11.40;96.70;;;;;;5091793;28;20409;-76
2023/04/03 09:42:33;;;;;;;;;;;11.80;93.40;;;;;;5091917;28;19924;-76
2023/04/03 09:45:00;;;;;;;;;;;12.10;87.50;;;;;;5126204;27;19927;-76
2023/04/03 09:47:28;;;;;;;;;;;12.30;84.90;;;;;;5093463;28;20010;-77
2023/04/03 09:50:12;;;;;;;;;;;12.60;80.50;;;;;;5092269;28;20421;-76
2023/04/03 09:52:38;;;;;;;;;;;12.70;74.30;;;;;;5093106;28;19927;-76
2023/04/03 09:55:29;;;;;;;;;;;13.00;75.50;;;;;;5092883;28;20373;-77
2023/04/03 09:58:04;;;;;;;;;;;13.30;74.90;;;;;;5081888;28;20007;-76
2023/04/03 10:00:32;;;;;;;;;;;13.70;78.00;;;;;;5074579;28;19974;-77
2023/04/03 10:02:58;;;;;;;;;;;13.90;73.40;;;;;;5108665;28;19920;-76
2023/04/03 10:05:30;;;;;;;;;;;14.00;78.30;;;;;;5074141;28;20396;-77
2023/04/03 10:08:15;;;;;;;;;;;14.20;78.00;;;;;;5125273;27;19920;-76
2023/04/03 10:10:41;;;;;;;;;;;14.30;70.20;;;;;;5091270;28;19935;-77
2023/04/03 10:13:11;;;;;;;;;;;14.20;73.20;;;;;;5091332;28;20401;-76
2023/04/03 10:15:42;;;;;;;;;;;14.20;74.40;;;;;;5091950;28;19977;-77
2023/04/03 10:18:29;;;;;;;;;;;14.20;70.60;;;;;;5092837;28;20381;-77
2023/04/03 10:20:57;;;;;;;;;;;14.20;71.60;;;;;;5092235;28;20002;-77
2023/04/03 10:23:22;;;;;;;;;;;14.30;73.20;;;;;;5092664;28;20011;-76
2023/04/03 10:26:26;;;;;;;3.10;0.60;;;14.60;69.10;;;;;;5091875;28;20006;-77
2023/04/03 10:29:16;;;;;;;2.90;0.60;;;14.80;66.80;;;;;;5089956;28;20441;-77
2023/04/03 10:31:52;;;;;;;2.05;0.47;;;14.90;68.70;;;;;;5085880;28;21038;-77
2023/04/03 10:34:38;;;;;;;3.20;0.70;;;14.90;63.00;;;;;;5089420;28;20414;-76
2023/04/03 10:37:28;;;;;;;2.95;0.90;;;14.90;61.00;;;;;;5090831;28;20777;-76
2023/04/03 10:40:19;;;;;;;2.53;0.65;;;14.90;64.80;;;;;;5119074;27;20490;-77
2023/04/03 10:42:49;;;;;;;1.65;0.40;;;15.10;66.20;;;;;;5123147;27;20444;-77
2023/04/03 10:45:27;;;;;;;2.55;0.52;;;15.40;59.60;;;;;;5116118;27;20479;-77
2023/04/03 10:48:15;;;;;;;1.90;0.47;;;15.60;62.10;;;;;;5088544;28;20464;-77
2023/04/03 10:50:43;;;;;;;3.00;0.60;;;15.70;60.70;;;;;;5088986;28;20406;-77
2023/04/03 10:53:32;;;;;;;2.40;0.60;;;16.00;58.30;;;;;;5123009;27;20477;-77
2023/04/03 10:56:32;;;;;;;2.23;0.50;;;15.90;55.40;;;;;;5081406;28;20915;-76
2023/04/03 10:59:39;;;;;;;2.03;0.43;;;16.10;58.60;;;;;;5082984;28;20445;-77
2023/04/03 11:02:24;;;;;;;1.23;0.50;;;16.00;53.40;;;;;;5051860;28;20414;-76
2023/04/03 11:04:59;;;;;;;1.70;0.45;;;16.00;54.10;;;;;;5121894;27;20475;-76
2023/04/03 11:07:30;;;;;;;1.77;0.43;;;16.10;55.20;;;;;;5089782;28;20397;-76
2023/04/03 11:10:03;;;;;;;2.40;0.53;;;16.30;55.50;;;;;;5089762;28;20477;-76
2023/04/03 11:12:46;;;;;;;2.88;0.43;;;16.40;54.00;;;;;;5090628;28;20044;-76
2023/04/03 11:15:15;;;;;;;2.15;0.50;;;16.40;54.50;;;;;;5089943;28;20398;-76
2023/04/03 11:17:52;;;;;;;2.67;0.40;;;16.60;55.00;;;;;;5090752;28;20518;-76
2023/04/03 11:20:27;;;;;;;2.25;0.60;;;16.40;52.60;;;;;;5089207;28;20483;-77
2023/04/03 11:23:05;;;;;;;3.20;0.70;;;16.40;52.70;;;;;;5089207;28;20869;-77
2023/04/03 11:25:34;;;;;;;2.25;0.60;;;16.60;55.00;;;;;;5089707;28;20743;-76
2023/04/03 11:28:01;;;;;;;;;;;16.80;55.30;;;;;;5091249;28;20472;-76
2023/04/03 11:30:45;;;;;;;;;;;16.90;54.40;;;;;;5091180;28;20431;-77
2023/04/03 11:33:22;;;;;;;1.80;0.40;;;17.00;51.40;;;;;;5090458;28;20001;-76
2023/04/03 11:35:53;;;;;;;4.35;0.80;;;17.10;53.60;;;;;;5090862;28;20047;-77
2023/04/03 11:38:40;;;;;;;2.10;0.65;;;17.10;50.00;;;;;;5089914;28;20067;-77
2023/04/03 11:41:08;;;;;;;1.50;0.32;;;17.10;53.10;;;;;;5072116;28;20082;-76
2023/04/03 11:43:39;;;;;;;2.23;0.60;;;17.20;53.60;;;;;;5089033;28;20405;-76
2023/04/03 11:46:07;;;;;;;1.95;0.40;;;17.40;53.90;;;;;;5089537;28;20398;-76
2023/04/03 11:48:35;;;;;;;3.22;0.60;;;17.60;53.40;;;;;;5089089;28;21014;-77
2023/04/03 11:51:11;;;;;;;1.52;0.50;;;17.50;52.30;;;;;;5089870;28;20050;-76
2023/04/03 11:53:38;;;;;;;1.85;0.40;;;17.60;49.70;;;;;;5090324;28;20414;-76
2023/04/03 11:56:27;;;;;;;1.25;0.40;;;17.60;49.00;;;;;;5089960;28;20051;-76
2023/04/03 11:59:14;;;;;;;2.45;0.40;;;17.50;47.80;;;;;;5087893;28;20088;-76
2023/04/03 12:01:50;;;;;;;2.35;0.30;;;17.60;51.00;;;;;;5083743;28;20493;-76
2023/04/03 12:04:18;;;;;;;2.08;0.47;;;17.50;48.20;;;;;;5086913;28;20769;-76
2023/04/03 12:06:54;;;;;;;1.73;0.30;;;17.40;47.80;;;;;;5122034;27;20128;-76
2023/04/03 12:09:27;;;;;;;1.02;0.35;;;17.30;47.80;;;;;;5089105;28;20036;-76
2023/04/03 12:11:55;;;;;;;2.00;0.40;;;17.20;48.10;;;;;;5089403;28;20085;-76
2023/04/03 12:14:25;;;;;;;2.00;0.38;;;17.20;50.70;;;;;;5088441;28;20278;-76
2023/04/03 12:16:53;;;;;;;1.95;0.40;;;17.30;48.40;;;;;;5087504;28;20456;-76
2023/04/03 12:19:40;;;;;;;1.40;0.43;;;17.40;49.70;;;;;;5087916;28;20797;-76
2023/04/03 12:22:08;;;;;;;1.73;0.30;;;17.40;47.90;;;;;;5084190;28;20812;-76
2023/04/03 12:24:40;;;;;;;1.90;0.45;;;17.40;48.50;;;;;;5087582;28;20402;-76
2023/04/03 12:27:22;;;;;;;2.27;0.50;;;17.20;45.70;;;;;;5087202;28;20788;-76
2023/04/03 12:30:03;;;;;;;2.55;0.47;;;17.10;47.20;;;;;;5087370;28;20394;-77
2023/04/03 12:32:28;;;;;;;1.95;0.60;;;17.40;51.40;;;;;;5080047;28;21224;-76
2023/04/03 12:35:22;;;;;;;3.07;0.70;;;17.50;50.60;;;;;;5087288;28;20504;-76
2023/04/03 12:38:00;;;;;;;2.47;0.70;;;17.70;51.30;;;;;;5087663;28;20438;-76
2023/04/03 12:40:34;;;;;;;3.50;0.85;;;18.00;52.30;;;;;;5113119;27;20479;-76
2023/04/03 12:43:44;;;;;;;4.30;0.90;;;18.10;52.70;;;;;;5088143;28;20428;-76
2023/04/03 12:46:16;;;;;;;3.97;1.20;;;18.30;51.90;;;;;;5076140;28;20406;-76
2023/04/03 12:48:45;;;;;;;3.05;0.70;;;18.50;53.40;;;;;;5089123;28;20036;-76
2023/04/03 12:51:17;;;;;;;2.85;0.88;;;18.80;52.10;;;;;;5087375;28;20410;-76
2023/04/03 12:53:45;;;;;;;3.70;0.85;;;19.10;52.80;;;;;;5086940;28;21097;-76
2023/04/03 12:56:31;;;;;;;5.80;0.85;;;19.10;52.60;;;;;;5086343;28;20413;-76
2023/04/03 12:59:24;;;;;;;2.72;0.82;;;19.20;49.90;;;;;;5069958;28;20420;-76
2023/04/03 13:02:01;;;;;;;;;;;19.20;51.70;;;;;;5098861;28;20321;-76
2023/04/03 13:04:28;;;;;;;;;;;19.20;51.60;;;;;;5110109;28;20450;-76
2023/04/03 13:06:54;;;;;;;;;;;19.50;51.30;;;;;;5126054;27;19959;-76
2023/04/03 13:09:22;;;;;;;;;;;19.80;50.60;;;;;;5074016;28;19974;-76
2023/04/03 13:11:48;;;;;;;;;;;20.00;51.20;;;;;;5110220;28;19924;-76
2023/04/03 13:14:22;;;;;;;2.63;0.50;;;20.30;51.20;;;;;;5109332;28;19919;-76
2023/04/03 13:16:59;;;;;;;2.75;0.40;;;20.50;50.60;;;;;;5091005;28;20050;-76
2023/04/03 13:19:25;;;;;;;;;;;20.80;50.50;;;;;;5124000;28;20497;-76
2023/04/03 13:21:57;;;;;;;;;;;21.00;50.80;;;;;;5091718;28;19920;-76
2023/04/03 13:24:23;;;;;;;0.90;0.20;;;21.10;50.10;;;;;;5107715;28;19945;-76
2023/04/03 13:26:51;;;;;;;1.58;0.40;;;21.10;49.30;;;;;;5108876;28;20052;-76
2023/04/03 13:29:25;;;;;;;;;;;21.20;50.00;;;;;;5098134;28;20119;-76
2023/04/03 13:31:55;;;;;;;2.35;0.52;;;21.40;48.10;;;;;;5090357;28;19919;-76
2023/04/03 13:34:22;;;;;;;;;;;21.70;47.30;;;;;;5091348;28;20054;-76
2023/04/03 13:36:51;;;;;;;;;;;21.90;48.50;;;;;;5109284;28;20723;-76
2023/04/03 13:39:16;;;;;;;;;;;22.00;46.00;;;;;;5090973;28;20377;-76
2023/04/03 13:41:47;;;;;;;;;;;22.00;46.90;;;;;;5090804;28;19964;-76
2023/04/03 13:44:15;;;;;;;;;;;21.90;47.60;;;;;;5091177;28;19935;-76
2023/04/03 13:46:41;;;;;;;;;;;22.00;47.80;;;;;;5109007;28;20300;-76
2023/04/03 13:49:19;;;;;;;;;;;22.00;45.70;;;;;;5091370;28;19920;-76
2023/04/03 13:51:44;;;;;;;;;;;21.90;46.30;;;;;;5090185;28;19923;-76
2023/04/03 13:54:18;;;;;;;;;;;21.80;47.50;;;;;;5091522;28;19924;-76
2023/04/03 13:56:44;;;;;;;;;;;21.90;46.10;;;;;;5091110;28;19920;-76
2023/04/03 13:59:13;;;;;;;;;;;21.90;45.00;;;;;;5109136;28;19927;-76
2023/04/03 14:01:44;;;;;;;;;;;21.70;46.40;;;;;;5125202;28;20404;-76
2023/04/03 14:04:15;;;;;;;;;;;21.70;46.00;;;;;;5094211;28;19919;-76
2023/04/03 14:06:41;;;;;;;;;;;21.90;45.10;;;;;;5077727;28;20015;-76
2023/04/03 14:09:06;;;;;;;;;;;21.90;45.40;;;;;;5094678;28;20007;-76
2023/04/03 14:11:33;;;;;;;;;;;21.80;46.10;;;;;;5094668;28;19931;-75
2023/04/03 14:14:05;;;;;;;2.58;0.40;;;21.90;44.10;;;;;;5094261;28;19985;-75
2023/04/03 14:16:35;;;;;;;2.55;0.50;;;21.70;44.20;;;;;;5127223;27;20510;-75
2023/04/03 14:19:00;;;;;;;2.15;0.45;;;21.60;45.00;;;;;;5110923;28;20402;-75